| Date | Time | Temp. (oF) | Dew Point (oF) | Rel. Hum. (%) | Press. (in.) | Wind Dir. | Wind Speed (mph) | Hourly Rainfall (in.) |
|
|---|---|---|---|---|---|---|---|---|---|
| 1 | 05/29 | 00:00 | 60 | 54 | 82 | 29.89 | SSW | 0 | 0.00 |
| 2 | 05/28 | 23:00 | 61 | 54 | 78 | 29.89 | WSW | 0 | 0.00 |
| 3 | 05/28 | 22:00 | 64 | 52 | 67 | 29.87 | SSW | 0 | 0.00 |
| 4 | 05/28 | 21:00 | 68 | 51 | 55 | 29.84 | W | 0 | 0.00 |
| 5 | 05/28 | 20:00 | 70 | 50 | 51 | 29.82 | WNW | 2 | 0.00 |
| 6 | 05/28 | 19:00 | 72 | 49 | 46 | 29.80 | NW | 2 | 0.00 |
| 7 | 05/28 | 18:00 | 74 | 50 | 44 | 29.79 | W | 7 | 0.00 |
| 8 | 05/28 | 17:00 | 74 | 51 | 46 | 29.80 | S | 5 | 0.00 |
| 9 | 05/28 | 16:00 | 74 | 51 | 46 | 29.81 | W | 7 | 0.00 |
| 10 | 05/28 | 15:00 | 74 | 49 | 43 | 29.82 | WSW | 8 | 0.00 |
| 11 | 05/28 | 14:00 | 73 | 49 | 44 | 29.84 | W | 11 | 0.00 |
| 12 | 05/28 | 13:00 | 71 | 50 | 48 | 29.86 | SSW | 10 | 0.00 |
| 13 | 05/28 | 12:00 | 70 | 51 | 52 | 29.88 | WNW | 9 | 0.00 |
| 14 | 05/28 | 11:00 | 66 | 52 | 62 | 29.86 | NW | 4 | 0.00 |
| 15 | 05/28 | 10:00 | 64 | 52 | 67 | 29.87 | W | 8 | 0.00 |
| 16 | 05/28 | 09:00 | 63 | 52 | 69 | 29.87 | S | 5 | 0.00 |
| 17 | 05/28 | 08:00 | 62 | 54 | 77 | 29.85 | SW | 5 | 0.00 |
| 18 | 05/28 | 07:00 | 60 | 58 | 94 | 29.85 | SSW | 2 | 0.00 |
| 19 | 05/28 | 06:00 | 58 | 56 | 96 | 29.83 | SW | 2 | 0.00 |
| 20 | 05/28 | 05:00 | 59 | 57 | 95 | 29.82 | SW | 2 | 0.00 |
| 21 | 05/28 | 04:00 | 61 | 59 | 94 | 29.82 | SSW | 0 | 0.00 |
| 22 | 05/28 | 03:00 | 61 | 60 | 97 | 29.81 | SW | 4 | 0.00 |
| 23 | 05/28 | 02:00 | 62 | 59 | 93 | 29.82 | S | 2 | 0.00 |
| 24 | 05/28 | 01:00 | 62 | 58 | 88 | 29.82 | SSW | 4 | 0.00 |